CheckWX is a tool to help pilots better visualize weather data.  It is not intended as a substitute for an official pre-flight weather briefing.

01:01:36 UTC

KEXX METAR
Davidson County Airport
Lexington, North Carolina, USA
Current

47 mins ago

KEXX 170015Z AUTO 00000KT 10SM CLR 25/18 A2998 RMK AO2 T02490182
Observed
Sep-17 @ 00:15 UTC
Visibility
10 SM
Flight Rules
VFR
Cloud Levels
  • Clear skies
Temperature
25°C / 77°F
Dewpoint
18°C / 64°F
Humidity
65%
Altimeter
29.98" Hg
Pressure
1015.22 hPa
Previous

1 hour ago

KEXX 162355Z AUTO 00000KT 10SM CLR 26/17 A2998 RMK AO2 T02570169 10335 20257
Observed
Sep-16 @ 23:55 UTC
Visibility
10 SM
Flight Rules
VFR
Cloud Levels
  • Clear skies
Temperature
26°C / 79°F
Dewpoint
17°C / 63°F
Humidity
58%
Altimeter
29.98" Hg
Pressure
1015.22 hPa
Previous

3 hours ago

KEXX 162215Z AUTO 00000KT 10SM CLR 31/15 A2998 RMK AO2 T03140147
Observed
Sep-16 @ 22:15 UTC
Visibility
10 SM
Flight Rules
VFR
Cloud Levels
  • Clear skies
Temperature
31°C / 88°F
Dewpoint
15°C / 59°F
Humidity
38%
Altimeter
29.98" Hg
Pressure
1015.22 hPa